sensor_id;sensor_type;location;lat;lon;timestamp;temperature;humidity
20400;DHT22;10359;53.596;22.520;2022-08-01T00:00:11;16.70;99.90
20400;DHT22;10359;53.596;22.520;2022-08-01T00:02:41;16.60;99.90
20400;DHT22;10359;53.596;22.520;2022-08-01T00:05:10;16.60;99.90
20400;DHT22;10359;53.596;22.520;2022-08-01T00:07:39;16.70;99.90
20400;DHT22;10359;53.596;22.520;2022-08-01T00:10:12;16.60;99.90
20400;DHT22;10359;53.596;22.520;2022-08-01T00:12:42;16.60;99.90
20400;DHT22;10359;53.596;22.520;2022-08-01T00:15:15;16.70;99.90
20400;DHT22;10359;53.596;22.520;2022-08-01T00:17:44;16.60;99.90
20400;DHT22;10359;53.596;22.520;2022-08-01T00:20:14;16.60;99.90
20400;DHT22;10359;53.596;22.520;2022-08-01T00:22:43;16.60;99.90
20400;DHT22;10359;53.596;22.520;2022-08-01T00:25:12;16.60;99.90
20400;DHT22;10359;53.596;22.520;2022-08-01T00:27:41;16.70;99.90
20400;DHT22;10359;53.596;22.520;2022-08-01T00:30:11;16.60;99.90
20400;DHT22;10359;53.596;22.520;2022-08-01T00:32:42;16.70;99.90
20400;DHT22;10359;53.596;22.520;2022-08-01T00:35:11;16.60;99.90
20400;DHT22;10359;53.596;22.520;2022-08-01T00:37:40;16.60;99.90
20400;DHT22;10359;53.596;22.520;2022-08-01T00:40:10;16.60;99.90
20400;DHT22;10359;53.596;22.520;2022-08-01T00:42:39;16.60;99.90
20400;DHT22;10359;53.596;22.520;2022-08-01T00:45:10;16.70;99.90
20400;DHT22;10359;53.596;22.520;2022-08-01T00:47:39;16.60;99.90
20400;DHT22;10359;53.596;22.520;2022-08-01T00:50:10;16.60;99.90
20400;DHT22;10359;53.596;22.520;2022-08-01T00:52:41;16.60;99.90
20400;DHT22;10359;53.596;22.520;2022-08-01T00:55:18;16.60;99.90
20400;DHT22;10359;53.596;22.520;2022-08-01T00:57:48;16.60;99.90
20400;DHT22;10359;53.596;22.520;2022-08-01T01:00:33;16.50;99.90
20400;DHT22;10359;53.596;22.520;2022-08-01T01:03:21;16.50;99.90
20400;DHT22;10359;53.596;22.520;2022-08-01T01:06:21;16.60;99.90
20400;DHT22;10359;53.596;22.520;2022-08-01T01:09:05;16.60;99.90
20400;DHT22;10359;53.596;22.520;2022-08-01T01:11:41;16.60;99.90
20400;DHT22;10359;53.596;22.520;2022-08-01T01:14:19;16.50;99.90
20400;DHT22;10359;53.596;22.520;2022-08-01T01:16:51;16.50;99.90
20400;DHT22;10359;53.596;22.520;2022-08-01T01:19:25;16.60;99.90
20400;DHT22;10359;53.596;22.520;2022-08-01T01:22:15;16.60;99.90
20400;DHT22;10359;53.596;22.520;2022-08-01T01:27:49;16.70;99.90
20400;DHT22;10359;53.596;22.520;2022-08-01T01:30:22;16.60;99.90
20400;DHT22;10359;53.596;22.520;2022-08-01T01:32:53;16.60;99.90
20400;DHT22;10359;53.596;22.520;2022-08-01T01:35:28;16.60;99.90
20400;DHT22;10359;53.596;22.520;2022-08-01T01:38:01;16.60;99.90
20400;DHT22;10359;53.596;22.520;2022-08-01T01:40:33;16.60;99.90
20400;DHT22;10359;53.596;22.520;2022-08-01T01:43:03;16.70;99.90
20400;DHT22;10359;53.596;22.520;2022-08-01T01:45:34;16.60;99.90
20400;DHT22;10359;53.596;22.520;2022-08-01T01:48:04;16.70;99.90
20400;DHT22;10359;53.596;22.520;2022-08-01T01:50:35;16.60;99.90
20400;DHT22;10359;53.596;22.520;2022-08-01T01:53:04;16.60;99.90
20400;DHT22;10359;53.596;22.520;2022-08-01T01:55:43;16.60;99.90
20400;DHT22;10359;53.596;22.520;2022-08-01T01:58:16;16.60;99.90
20400;DHT22;10359;53.596;22.520;2022-08-01T02:00:50;16.60;99.90
20400;DHT22;10359;53.596;22.520;2022-08-01T02:03:21;16.60;99.90
20400;DHT22;10359;53.596;22.520;2022-08-01T02:05:51;16.60;99.90
20400;DHT22;10359;53.596;22.520;2022-08-01T02:08:22;16.50;99.90
20400;DHT22;10359;53.596;22.520;2022-08-01T02:13:25;16.50;99.90
20400;DHT22;10359;53.596;22.520;2022-08-01T02:15:56;16.50;99.90
20400;DHT22;10359;53.596;22.520;2022-08-01T02:18:26;16.50;99.90
20400;DHT22;10359;53.596;22.520;2022-08-01T02:20:58;16.50;99.90
20400;DHT22;10359;53.596;22.520;2022-08-01T02:23:31;16.50;99.90
20400;DHT22;10359;53.596;22.520;2022-08-01T02:26:04;16.50;99.90
20400;DHT22;10359;53.596;22.520;2022-08-01T02:28:47;16.50;99.90
20400;DHT22;10359;53.596;22.520;2022-08-01T02:31:22;16.60;99.90
20400;DHT22;10359;53.596;22.520;2022-08-01T02:33:58;16.50;99.90
20400;DHT22;10359;53.596;22.520;2022-08-01T02:36:35;16.50;99.90
20400;DHT22;10359;53.596;22.520;2022-08-01T02:39:09;16.50;99.90
20400;DHT22;10359;53.596;22.520;2022-08-01T02:41:48;16.60;99.90
20400;DHT22;10359;53.596;22.520;2022-08-01T02:44:23;16.50;99.90
20400;DHT22;10359;53.596;22.520;2022-08-01T02:47:01;16.50;99.90
20400;DHT22;10359;53.596;22.520;2022-08-01T02:49:33;16.40;99.90
20400;DHT22;10359;53.596;22.520;2022-08-01T02:52:07;16.50;99.90
20400;DHT22;10359;53.596;22.520;2022-08-01T02:54:39;16.50;99.90
20400;DHT22;10359;53.596;22.520;2022-08-01T02:57:11;16.60;99.90
20400;DHT22;10359;53.596;22.520;2022-08-01T02:59:49;16.60;99.90
20400;DHT22;10359;53.596;22.520;2022-08-01T03:02:24;16.60;99.90
20400;DHT22;10359;53.596;22.520;2022-08-01T03:05:09;16.50;99.90
20400;DHT22;10359;53.596;22.520;2022-08-01T03:07:41;16.60;99.90
20400;DHT22;10359;53.596;22.520;2022-08-01T03:10:15;16.60;99.90
20400;DHT22;10359;53.596;22.520;2022-08-01T03:12:49;16.70;99.90
20400;DHT22;10359;53.596;22.520;2022-08-01T03:15:19;16.70;99.90
20400;DHT22;10359;53.596;22.520;2022-08-01T03:17:56;16.80;99.90
20400;DHT22;10359;53.596;22.520;2022-08-01T03:20:27;16.80;99.90
20400;DHT22;10359;53.596;22.520;2022-08-01T03:23:00;16.80;99.90
20400;DHT22;10359;53.596;22.520;2022-08-01T03:25:31;16.90;99.90
20400;DHT22;10359;53.596;22.520;2022-08-01T03:28:04;16.90;99.90
20400;DHT22;10359;53.596;22.520;2022-08-01T03:30:37;16.90;99.90
20400;DHT22;10359;53.596;22.520;2022-08-01T03:33:15;16.90;99.90
20400;DHT22;10359;53.596;22.520;2022-08-01T03:36:00;16.90;99.90
20400;DHT22;10359;53.596;22.520;2022-08-01T03:38:46;16.90;99.90
20400;DHT22;10359;53.596;22.520;2022-08-01T03:41:48;16.90;99.90
20400;DHT22;10359;53.596;22.520;2022-08-01T03:44:26;17.00;99.90
20400;DHT22;10359;53.596;22.520;2022-08-01T03:47:00;17.10;99.90
20400;DHT22;10359;53.596;22.520;2022-08-01T03:49:35;17.10;99.90
20400;DHT22;10359;53.596;22.520;2022-08-01T03:52:06;17.10;99.90
20400;DHT22;10359;53.596;22.520;2022-08-01T03:54:40;17.10;99.90
20400;DHT22;10359;53.596;22.520;2022-08-01T03:57:10;17.00;99.90
20400;DHT22;10359;53.596;22.520;2022-08-01T04:00:00;17.10;99.90
20400;DHT22;10359;53.596;22.520;2022-08-01T04:02:34;17.20;99.90
20400;DHT22;10359;53.596;22.520;2022-08-01T04:05:07;17.30;99.90
20400;DHT22;10359;53.596;22.520;2022-08-01T04:07:39;17.20;99.90
20400;DHT22;10359;53.596;22.520;2022-08-01T04:10:11;17.30;99.90
20400;DHT22;10359;53.596;22.520;2022-08-01T04:12:40;17.30;99.90
20400;DHT22;10359;53.596;22.520;2022-08-01T04:15:10;17.30;99.90
20400;DHT22;10359;53.596;22.520;2022-08-01T04:17:40;17.40;99.90
20400;DHT22;10359;53.596;22.520;2022-08-01T04:20:11;17.40;99.90
20400;DHT22;10359;53.596;22.520;2022-08-01T04:22:42;17.50;99.90
20400;DHT22;10359;53.596;22.520;2022-08-01T04:25:19;17.50;99.90
20400;DHT22;10359;53.596;22.520;2022-08-01T04:27:54;17.50;99.90
20400;DHT22;10359;53.596;22.520;2022-08-01T04:30:31;17.40;99.90
20400;DHT22;10359;53.596;22.520;2022-08-01T04:33:04;17.50;99.90
20400;DHT22;10359;53.596;22.520;2022-08-01T04:35:39;17.50;99.90
20400;DHT22;10359;53.596;22.520;2022-08-01T04:38:32;17.60;99.90
20400;DHT22;10359;53.596;22.520;2022-08-01T04:41:12;17.60;99.90
20400;DHT22;10359;53.596;22.520;2022-08-01T04:43:45;17.60;99.90
20400;DHT22;10359;53.596;22.520;2022-08-01T04:46:16;17.70;99.90
20400;DHT22;10359;53.596;22.520;2022-08-01T04:49:21;17.80;99.90
20400;DHT22;10359;53.596;22.520;2022-08-01T04:52:12;17.70;99.90
20400;DHT22;10359;53.596;22.520;2022-08-01T04:55:00;17.70;99.90
20400;DHT22;10359;53.596;22.520;2022-08-01T04:57:33;17.70;99.90
20400;DHT22;10359;53.596;22.520;2022-08-01T05:00:09;17.70;99.90
20400;DHT22;10359;53.596;22.520;2022-08-01T05:02:50;17.70;99.90
20400;DHT22;10359;53.596;22.520;2022-08-01T05:05:35;17.80;99.90
20400;DHT22;10359;53.596;22.520;2022-08-01T05:08:42;17.80;99.90
20400;DHT22;10359;53.596;22.520;2022-08-01T05:11:20;17.90;99.90
20400;DHT22;10359;53.596;22.520;2022-08-01T05:14:05;17.90;99.90
20400;DHT22;10359;53.596;22.520;2022-08-01T05:16:50;18.00;99.90
20400;DHT22;10359;53.596;22.520;2022-08-01T05:19:28;18.10;99.90
20400;DHT22;10359;53.596;22.520;2022-08-01T05:22:00;18.10;99.90
20400;DHT22;10359;53.596;22.520;2022-08-01T05:24:38;18.40;99.90
20400;DHT22;10359;53.596;22.520;2022-08-01T05:27:08;18.40;99.90
20400;DHT22;10359;53.596;22.520;2022-08-01T05:29:42;18.60;99.90
20400;DHT22;10359;53.596;22.520;2022-08-01T05:32:14;18.60;99.90
20400;DHT22;10359;53.596;22.520;2022-08-01T05:34:46;18.70;99.90
20400;DHT22;10359;53.596;22.520;2022-08-01T05:37:21;18.90;99.90
20400;DHT22;10359;53.596;22.520;2022-08-01T05:40:01;19.20;99.90
20400;DHT22;10359;53.596;22.520;2022-08-01T05:42:31;19.40;99.90
20400;DHT22;10359;53.596;22.520;2022-08-01T05:45:07;19.50;99.90
20400;DHT22;10359;53.596;22.520;2022-08-01T05:47:38;19.50;99.90
20400;DHT22;10359;53.596;22.520;2022-08-01T05:50:09;19.40;99.90
20400;DHT22;10359;53.596;22.520;2022-08-01T05:52:39;19.30;99.90
20400;DHT22;10359;53.596;22.520;2022-08-01T05:55:13;19.30;99.90
20400;DHT22;10359;53.596;22.520;2022-08-01T05:57:42;19.30;99.90
20400;DHT22;10359;53.596;22.520;2022-08-01T06:00:13;19.40;99.90
20400;DHT22;10359;53.596;22.520;2022-08-01T06:02:47;19.30;99.90
20400;DHT22;10359;53.596;22.520;2022-08-01T06:05:34;19.20;99.90
20400;DHT22;10359;53.596;22.520;2022-08-01T06:08:11;19.20;99.90
20400;DHT22;10359;53.596;22.520;2022-08-01T06:10:45;19.00;99.90
20400;DHT22;10359;53.596;22.520;2022-08-01T06:13:18;19.20;99.90
20400;DHT22;10359;53.596;22.520;2022-08-01T06:16:16;19.30;99.90
20400;DHT22;10359;53.596;22.520;2022-08-01T06:18:50;19.20;99.90
20400;DHT22;10359;53.596;22.520;2022-08-01T06:21:28;19.30;99.90
20400;DHT22;10359;53.596;22.520;2022-08-01T06:24:09;19.20;99.90
20400;DHT22;10359;53.596;22.520;2022-08-01T06:26:55;19.20;99.90
20400;DHT22;10359;53.596;22.520;2022-08-01T06:29:30;19.10;99.90
20400;DHT22;10359;53.596;22.520;2022-08-01T06:32:03;19.20;99.90
20400;DHT22;10359;53.596;22.520;2022-08-01T06:34:34;19.30;99.90
20400;DHT22;10359;53.596;22.520;2022-08-01T06:37:04;19.20;99.90
20400;DHT22;10359;53.596;22.520;2022-08-01T06:39:35;19.10;99.90
20400;DHT22;10359;53.596;22.520;2022-08-01T06:42:10;18.90;99.90
20400;DHT22;10359;53.596;22.520;2022-08-01T06:44:42;19.00;99.90
20400;DHT22;10359;53.596;22.520;2022-08-01T06:47:18;19.00;99.90
20400;DHT22;10359;53.596;22.520;2022-08-01T06:49:49;18.80;99.90
20400;DHT22;10359;53.596;22.520;2022-08-01T06:52:21;18.80;99.90
20400;DHT22;10359;53.596;22.520;2022-08-01T06:54:52;18.70;99.90
20400;DHT22;10359;53.596;22.520;2022-08-01T06:57:28;18.80;99.90
20400;DHT22;10359;53.596;22.520;2022-08-01T07:00:03;18.70;99.90
20400;DHT22;10359;53.596;22.520;2022-08-01T07:02:37;18.70;99.90
20400;DHT22;10359;53.596;22.520;2022-08-01T07:05:09;18.80;99.90
20400;DHT22;10359;53.596;22.520;2022-08-01T07:08:01;18.90;99.90
20400;DHT22;10359;53.596;22.520;2022-08-01T07:10:51;18.90;99.90
20400;DHT22;10359;53.596;22.520;2022-08-01T07:13:29;18.90;99.90
20400;DHT22;10359;53.596;22.520;2022-08-01T07:16:19;19.10;99.90
20400;DHT22;10359;53.596;22.520;2022-08-01T07:18:55;19.20;99.90
20400;DHT22;10359;53.596;22.520;2022-08-01T07:21:38;19.30;99.90
20400;DHT22;10359;53.596;22.520;2022-08-01T07:24:25;19.50;99.90
20400;DHT22;10359;53.596;22.520;2022-08-01T07:27:08;19.80;99.90
20400;DHT22;10359;53.596;22.520;2022-08-01T07:30:10;19.70;99.90
20400;DHT22;10359;53.596;22.520;2022-08-01T07:32:51;20.00;99.90
20400;DHT22;10359;53.596;22.520;2022-08-01T07:35:21;20.40;99.90
20400;DHT22;10359;53.596;22.520;2022-08-01T07:37:58;20.20;99.90
20400;DHT22;10359;53.596;22.520;2022-08-01T07:40:27;20.40;99.90
20400;DHT22;10359;53.596;22.520;2022-08-01T07:42:58;20.50;99.90
20400;DHT22;10359;53.596;22.520;2022-08-01T07:45:34;20.80;99.90
20400;DHT22;10359;53.596;22.520;2022-08-01T07:48:09;21.00;99.90
20400;DHT22;10359;53.596;22.520;2022-08-01T07:50:44;21.00;99.90
20400;DHT22;10359;53.596;22.520;2022-08-01T07:53:17;21.20;99.90
20400;DHT22;10359;53.596;22.520;2022-08-01T07:55:47;21.40;99.90
20400;DHT22;10359;53.596;22.520;2022-08-01T07:58:18;21.10;99.90
20400;DHT22;10359;53.596;22.520;2022-08-01T08:00:50;21.30;99.90
20400;DHT22;10359;53.596;22.520;2022-08-01T08:03:19;21.00;99.90
20400;DHT22;10359;53.596;22.520;2022-08-01T08:05:53;21.50;99.90
20400;DHT22;10359;53.596;22.520;2022-08-01T08:08:28;21.60;99.90
20400;DHT22;10359;53.596;22.520;2022-08-01T08:10:58;22.00;99.90
20400;DHT22;10359;53.596;22.520;2022-08-01T08:13:29;22.20;99.90
20400;DHT22;10359;53.596;22.520;2022-08-01T08:16:08;22.40;99.90
20400;DHT22;10359;53.596;22.520;2022-08-01T08:18:38;22.40;99.90
20400;DHT22;10359;53.596;22.520;2022-08-01T08:21:10;22.80;99.90
20400;DHT22;10359;53.596;22.520;2022-08-01T08:23:40;22.50;99.90
20400;DHT22;10359;53.596;22.520;2022-08-01T08:26:28;22.30;99.90
20400;DHT22;10359;53.596;22.520;2022-08-01T08:28:57;22.00;99.90
20400;DHT22;10359;53.596;22.520;2022-08-01T08:31:30;21.70;99.90
20400;DHT22;10359;53.596;22.520;2022-08-01T08:34:22;21.60;99.90
20400;DHT22;10359;53.596;22.520;2022-08-01T08:36:52;21.60;99.90
20400;DHT22;10359;53.596;22.520;2022-08-01T08:39:22;21.50;99.90
20400;DHT22;10359;53.596;22.520;2022-08-01T08:41:52;21.20;99.90
20400;DHT22;10359;53.596;22.520;2022-08-01T08:44:22;21.10;99.90
20400;DHT22;10359;53.596;22.520;2022-08-01T08:46:57;20.80;99.90
20400;DHT22;10359;53.596;22.520;2022-08-01T08:49:29;20.80;99.90
20400;DHT22;10359;53.596;22.520;2022-08-01T08:52:03;20.60;99.90
20400;DHT22;10359;53.596;22.520;2022-08-01T08:54:37;20.60;99.90
20400;DHT22;10359;53.596;22.520;2022-08-01T08:57:07;20.50;99.90
20400;DHT22;10359;53.596;22.520;2022-08-01T08:59:39;20.50;99.90
20400;DHT22;10359;53.596;22.520;2022-08-01T09:02:20;20.90;99.90
20400;DHT22;10359;53.596;22.520;2022-08-01T09:04:50;21.20;99.90
20400;DHT22;10359;53.596;22.520;2022-08-01T09:07:19;21.50;99.90
20400;DHT22;10359;53.596;22.520;2022-08-01T09:09:52;21.70;99.90
20400;DHT22;10359;53.596;22.520;2022-08-01T09:12:54;21.60;99.90
20400;DHT22;10359;53.596;22.520;2022-08-01T09:15:41;21.60;99.90
20400;DHT22;10359;53.596;22.520;2022-08-01T09:18:30;21.60;99.90
20400;DHT22;10359;53.596;22.520;2022-08-01T09:21:13;22.20;99.90
20400;DHT22;10359;53.596;22.520;2022-08-01T09:23:44;22.40;99.90
20400;DHT22;10359;53.596;22.520;2022-08-01T09:26:28;22.60;99.90
20400;DHT22;10359;53.596;22.520;2022-08-01T09:28:59;22.50;99.90
20400;DHT22;10359;53.596;22.520;2022-08-01T09:31:42;22.30;99.90
20400;DHT22;10359;53.596;22.520;2022-08-01T09:34:26;22.10;99.90
20400;DHT22;10359;53.596;22.520;2022-08-01T09:36:59;22.00;99.90
20400;DHT22;10359;53.596;22.520;2022-08-01T09:39:46;21.60;99.90
20400;DHT22;10359;53.596;22.520;2022-08-01T09:43:10;21.50;99.90
20400;DHT22;10359;53.596;22.520;2022-08-01T09:45:56;21.50;99.90
20400;DHT22;10359;53.596;22.520;2022-08-01T09:52:09;21.50;99.90
20400;DHT22;10359;53.596;22.520;2022-08-01T09:55:09;22.10;99.90
20400;DHT22;10359;53.596;22.520;2022-08-01T09:57:40;22.90;99.90
20400;DHT22;10359;53.596;22.520;2022-08-01T10:00:44;23.40;99.90
20400;DHT22;10359;53.596;22.520;2022-08-01T10:04:08;23.30;99.90
20400;DHT22;10359;53.596;22.520;2022-08-01T10:06:41;23.00;99.90
20400;DHT22;10359;53.596;22.520;2022-08-01T10:09:43;23.20;99.90
20400;DHT22;10359;53.596;22.520;2022-08-01T10:12:21;23.30;99.90
20400;DHT22;10359;53.596;22.520;2022-08-01T10:15:12;23.50;99.90
20400;DHT22;10359;53.596;22.520;2022-08-01T10:17:49;23.60;99.90
20400;DHT22;10359;53.596;22.520;2022-08-01T10:20:53;23.70;99.90
20400;DHT22;10359;53.596;22.520;2022-08-01T10:23:38;23.70;99.90
20400;DHT22;10359;53.596;22.520;2022-08-01T10:26:10;23.90;99.90
20400;DHT22;10359;53.596;22.520;2022-08-01T10:28:47;24.30;99.90
20400;DHT22;10359;53.596;22.520;2022-08-01T10:31:21;24.80;99.90
20400;DHT22;10359;53.596;22.520;2022-08-01T10:34:12;25.30;99.90
20400;DHT22;10359;53.596;22.520;2022-08-01T10:37:02;25.10;99.90
20400;DHT22;10359;53.596;22.520;2022-08-01T10:39:34;25.50;99.90
20400;DHT22;10359;53.596;22.520;2022-08-01T10:42:17;25.50;99.90
20400;DHT22;10359;53.596;22.520;2022-08-01T10:44:48;25.10;99.90
20400;DHT22;10359;53.596;22.520;2022-08-01T10:47:21;25.20;99.90
20400;DHT22;10359;53.596;22.520;2022-08-01T10:50:19;25.30;99.90
20400;DHT22;10359;53.596;22.520;2022-08-01T10:53:13;25.40;99.90
20400;DHT22;10359;53.596;22.520;2022-08-01T10:56:01;25.10;99.90
20400;DHT22;10359;53.596;22.520;2022-08-01T10:58:32;24.90;99.90
20400;DHT22;10359;53.596;22.520;2022-08-01T11:01:23;25.00;99.90
20400;DHT22;10359;53.596;22.520;2022-08-01T11:04:10;24.80;99.90
20400;DHT22;10359;53.596;22.520;2022-08-01T11:07:05;24.20;99.90
20400;DHT22;10359;53.596;22.520;2022-08-01T11:09:41;23.50;99.90
20400;DHT22;10359;53.596;22.520;2022-08-01T11:12:18;23.40;99.90
20400;DHT22;10359;53.596;22.520;2022-08-01T11:15:18;23.10;99.90
20400;DHT22;10359;53.596;22.520;2022-08-01T11:17:59;23.40;99.90
20400;DHT22;10359;53.596;22.520;2022-08-01T11:20:33;23.70;99.90
20400;DHT22;10359;53.596;22.520;2022-08-01T11:23:18;24.40;99.90
20400;DHT22;10359;53.596;22.520;2022-08-01T11:26:11;24.60;99.90
20400;DHT22;10359;53.596;22.520;2022-08-01T11:29:16;25.00;99.90
20400;DHT22;10359;53.596;22.520;2022-08-01T11:34:55;24.80;99.90
20400;DHT22;10359;53.596;22.520;2022-08-01T11:37:28;24.40;99.90
20400;DHT22;10359;53.596;22.520;2022-08-01T11:40:15;24.30;99.90
20400;DHT22;10359;53.596;22.520;2022-08-01T11:42:45;24.20;99.90
20400;DHT22;10359;53.596;22.520;2022-08-01T11:45:15;24.20;99.90
20400;DHT22;10359;53.596;22.520;2022-08-01T11:47:51;24.40;99.90
20400;DHT22;10359;53.596;22.520;2022-08-01T11:50:37;24.30;99.90
20400;DHT22;10359;53.596;22.520;2022-08-01T11:53:07;24.20;99.90
20400;DHT22;10359;53.596;22.520;2022-08-01T11:55:45;24.10;99.90
20400;DHT22;10359;53.596;22.520;2022-08-01T11:58:22;23.70;99.90
20400;DHT22;10359;53.596;22.520;2022-08-01T12:00:58;23.90;99.90
20400;DHT22;10359;53.596;22.520;2022-08-01T12:03:29;24.10;99.90
20400;DHT22;10359;53.596;22.520;2022-08-01T12:06:05;24.30;99.90
20400;DHT22;10359;53.596;22.520;2022-08-01T12:08:37;24.80;99.90
20400;DHT22;10359;53.596;22.520;2022-08-01T12:11:06;24.80;99.90
20400;DHT22;10359;53.596;22.520;2022-08-01T12:13:40;25.20;99.90
20400;DHT22;10359;53.596;22.520;2022-08-01T12:16:12;25.40;99.90
20400;DHT22;10359;53.596;22.520;2022-08-01T12:18:42;25.70;99.90
20400;DHT22;10359;53.596;22.520;2022-08-01T12:21:13;25.40;99.90
20400;DHT22;10359;53.596;22.520;2022-08-01T12:23:42;25.10;99.90
20400;DHT22;10359;53.596;22.520;2022-08-01T12:26:11;24.80;99.90
20400;DHT22;10359;53.596;22.520;2022-08-01T12:28:58;25.00;99.90
20400;DHT22;10359;53.596;22.520;2022-08-01T12:31:33;25.50;99.90
20400;DHT22;10359;53.596;22.520;2022-08-01T12:34:26;25.80;99.90
20400;DHT22;10359;53.596;22.520;2022-08-01T12:36:59;25.90;99.90
20400;DHT22;10359;53.596;22.520;2022-08-01T12:39:32;26.20;99.90
20400;DHT22;10359;53.596;22.520;2022-08-01T12:42:01;26.20;99.90
20400;DHT22;10359;53.596;22.520;2022-08-01T12:44:41;25.90;99.90
20400;DHT22;10359;53.596;22.520;2022-08-01T12:47:11;25.60;99.90
20400;DHT22;10359;53.596;22.520;2022-08-01T12:49:42;25.60;99.90
20400;DHT22;10359;53.596;22.520;2022-08-01T12:52:13;25.40;99.90
20400;DHT22;10359;53.596;22.520;2022-08-01T12:55:08;24.90;99.90
20400;DHT22;10359;53.596;22.520;2022-08-01T12:57:39;24.50;99.90
20400;DHT22;10359;53.596;22.520;2022-08-01T13:00:20;24.20;99.90
20400;DHT22;10359;53.596;22.520;2022-08-01T13:02:50;24.20;99.90
20400;DHT22;10359;53.596;22.520;2022-08-01T13:05:28;24.40;99.90
20400;DHT22;10359;53.596;22.520;2022-08-01T13:08:11;24.80;99.90
20400;DHT22;10359;53.596;22.520;2022-08-01T13:10:41;25.20;99.90
20400;DHT22;10359;53.596;22.520;2022-08-01T13:13:11;25.70;99.90
20400;DHT22;10359;53.596;22.520;2022-08-01T13:16:04;25.70;99.90
20400;DHT22;10359;53.596;22.520;2022-08-01T13:18:35;27.40;99.90
20400;DHT22;10359;53.596;22.520;2022-08-01T13:21:09;29.90;99.90
20400;DHT22;10359;53.596;22.520;2022-08-01T13:23:40;29.00;99.90
20400;DHT22;10359;53.596;22.520;2022-08-01T13:26:43;27.40;99.90
20400;DHT22;10359;53.596;22.520;2022-08-01T13:29:13;27.50;99.90
20400;DHT22;10359;53.596;22.520;2022-08-01T13:31:43;30.60;99.90
20400;DHT22;10359;53.596;22.520;2022-08-01T13:34:15;32.40;99.90
20400;DHT22;10359;53.596;22.520;2022-08-01T13:36:44;33.80;99.90
20400;DHT22;10359;53.596;22.520;2022-08-01T13:39:17;32.50;99.90
20400;DHT22;10359;53.596;22.520;2022-08-01T13:42:04;33.30;99.90
20400;DHT22;10359;53.596;22.520;2022-08-01T13:44:33;32.50;99.90
20400;DHT22;10359;53.596;22.520;2022-08-01T13:47:03;34.60;99.90
20400;DHT22;10359;53.596;22.520;2022-08-01T13:49:43;32.50;99.90
20400;DHT22;10359;53.596;22.520;2022-08-01T13:52:12;33.30;99.90
20400;DHT22;10359;53.596;22.520;2022-08-01T13:54:42;31.70;99.90
20400;DHT22;10359;53.596;22.520;2022-08-01T13:57:11;29.90;99.90
20400;DHT22;10359;53.596;22.520;2022-08-01T13:59:41;28.80;99.90
20400;DHT22;10359;53.596;22.520;2022-08-01T14:02:10;31.80;99.90
20400;DHT22;10359;53.596;22.520;2022-08-01T14:04:39;29.60;99.90
20400;DHT22;10359;53.596;22.520;2022-08-01T14:07:08;30.50;99.90
20400;DHT22;10359;53.596;22.520;2022-08-01T14:09:42;29.30;99.90
20400;DHT22;10359;53.596;22.520;2022-08-01T14:12:31;27.70;99.90
20400;DHT22;10359;53.596;22.520;2022-08-01T14:15:00;26.70;99.90
20400;DHT22;10359;53.596;22.520;2022-08-01T14:17:29;26.90;99.90
20400;DHT22;10359;53.596;22.520;2022-08-01T14:20:12;29.20;99.90
20400;DHT22;10359;53.596;22.520;2022-08-01T14:22:41;28.70;99.90
20400;DHT22;10359;53.596;22.520;2022-08-01T14:25:12;28.50;99.90
20400;DHT22;10359;53.596;22.520;2022-08-01T14:27:50;29.40;99.90
20400;DHT22;10359;53.596;22.520;2022-08-01T14:30:19;27.70;99.90
20400;DHT22;10359;53.596;22.520;2022-08-01T14:32:48;26.90;99.90
20400;DHT22;10359;53.596;22.520;2022-08-01T14:35:17;26.70;99.90
20400;DHT22;10359;53.596;22.520;2022-08-01T14:37:46;27.20;99.90
20400;DHT22;10359;53.596;22.520;2022-08-01T14:40:17;26.80;99.90
20400;DHT22;10359;53.596;22.520;2022-08-01T14:42:46;26.80;99.90
20400;DHT22;10359;53.596;22.520;2022-08-01T14:45:18;26.60;99.90
20400;DHT22;10359;53.596;22.520;2022-08-01T14:47:47;26.10;99.90
20400;DHT22;10359;53.596;22.520;2022-08-01T14:50:16;25.80;99.90
20400;DHT22;10359;53.596;22.520;2022-08-01T14:52:45;25.90;99.90
20400;DHT22;10359;53.596;22.520;2022-08-01T14:55:14;25.60;99.90
20400;DHT22;10359;53.596;22.520;2022-08-01T14:57:44;25.30;99.90
20400;DHT22;10359;53.596;22.520;2022-08-01T15:00:14;25.10;99.90
20400;DHT22;10359;53.596;22.520;2022-08-01T15:02:46;25.00;99.90
20400;DHT22;10359;53.596;22.520;2022-08-01T15:05:17;24.70;99.90
20400;DHT22;10359;53.596;22.520;2022-08-01T15:07:49;24.30;99.90
20400;DHT22;10359;53.596;22.520;2022-08-01T15:10:19;24.00;99.90
20400;DHT22;10359;53.596;22.520;2022-08-01T15:12:51;24.20;99.90
20400;DHT22;10359;53.596;22.520;2022-08-01T15:15:20;23.80;99.90
20400;DHT22;10359;53.596;22.520;2022-08-01T15:17:49;23.60;99.90
20400;DHT22;10359;53.596;22.520;2022-08-01T15:20:19;23.80;99.90
20400;DHT22;10359;53.596;22.520;2022-08-01T15:22:48;24.10;99.90
20400;DHT22;10359;53.596;22.520;2022-08-01T15:25:17;24.10;99.90
20400;DHT22;10359;53.596;22.520;2022-08-01T15:27:46;24.20;99.90
20400;DHT22;10359;53.596;22.520;2022-08-01T15:30:20;24.00;99.90
20400;DHT22;10359;53.596;22.520;2022-08-01T15:32:53;23.90;99.90
20400;DHT22;10359;53.596;22.520;2022-08-01T15:35:22;23.60;99.90
20400;DHT22;10359;53.596;22.520;2022-08-01T15:37:51;23.30;99.90
20400;DHT22;10359;53.596;22.520;2022-08-01T15:40:20;23.20;99.90
20400;DHT22;10359;53.596;22.520;2022-08-01T15:42:49;23.10;99.90
20400;DHT22;10359;53.596;22.520;2022-08-01T15:45:21;22.80;99.90
20400;DHT22;10359;53.596;22.520;2022-08-01T15:48:10;22.70;99.90
20400;DHT22;10359;53.596;22.520;2022-08-01T15:50:39;22.50;99.90
20400;DHT22;10359;53.596;22.520;2022-08-01T15:53:08;22.40;99.90
20400;DHT22;10359;53.596;22.520;2022-08-01T15:55:37;22.40;99.90
20400;DHT22;10359;53.596;22.520;2022-08-01T15:58:07;22.30;99.90
20400;DHT22;10359;53.596;22.520;2022-08-01T16:00:39;22.10;99.90
20400;DHT22;10359;53.596;22.520;2022-08-01T16:03:08;22.10;99.90
20400;DHT22;10359;53.596;22.520;2022-08-01T16:05:37;22.00;99.90
20400;DHT22;10359;53.596;22.520;2022-08-01T16:08:10;22.10;99.90
20400;DHT22;10359;53.596;22.520;2022-08-01T16:10:39;22.00;99.90
20400;DHT22;10359;53.596;22.520;2022-08-01T16:13:08;22.10;99.90
20400;DHT22;10359;53.596;22.520;2022-08-01T16:15:39;22.00;99.90
20400;DHT22;10359;53.596;22.520;2022-08-01T16:18:09;22.00;99.90
20400;DHT22;10359;53.596;22.520;2022-08-01T16:20:40;22.00;99.90